sensor_id;sensor_type;location;lat;lon;timestamp;pressure;altitude;pressure_sealevel;temperature;humidity
30730;BME280;17476;48.458;7.928;2023-02-11T00:00:17;102153.97;;;0.70;85.80
30730;BME280;17476;48.458;7.928;2023-02-11T00:02:43;102154.09;;;0.66;86.45
30730;BME280;17476;48.458;7.928;2023-02-11T00:05:09;102154.06;;;0.67;86.06
30730;BME280;17476;48.458;7.928;2023-02-11T00:07:36;102152.28;;;0.69;85.45
30730;BME280;17476;48.458;7.928;2023-02-11T00:10:03;102149.13;;;0.61;85.16
30730;BME280;17476;48.458;7.928;2023-02-11T00:12:36;102151.09;;;0.51;85.55
30730;BME280;17476;48.458;7.928;2023-02-11T00:15:04;102154.75;;;0.44;86.28
30730;BME280;17476;48.458;7.928;2023-02-11T00:17:31;102159.78;;;0.47;86.06
30730;BME280;17476;48.458;7.928;2023-02-11T00:19:57;102161.34;;;0.53;84.95
30730;BME280;17476;48.458;7.928;2023-02-11T00:22:23;102164.06;;;0.48;86.42
30730;BME280;17476;48.458;7.928;2023-02-11T00:24:49;102166.72;;;0.45;86.52
30730;BME280;17476;48.458;7.928;2023-02-11T00:27:15;102167.50;;;0.47;86.83
30730;BME280;17476;48.458;7.928;2023-02-11T00:29:40;102175.09;;;0.52;86.40
30730;BME280;17476;48.458;7.928;2023-02-11T00:32:06;102176.63;;;0.59;85.99
30730;BME280;17476;48.458;7.928;2023-02-11T00:34:36;102177.44;;;0.60;85.70
30730;BME280;17476;48.458;7.928;2023-02-11T00:37:03;102175.03;;;0.55;85.24
30730;BME280;17476;48.458;7.928;2023-02-11T00:39:30;102174.38;;;0.48;84.51
30730;BME280;17476;48.458;7.928;2023-02-11T00:41:56;102173.53;;;0.46;84.44
30730;BME280;17476;48.458;7.928;2023-02-11T00:44:23;102179.06;;;0.34;85.16
30730;BME280;17476;48.458;7.928;2023-02-11T00:46:48;102174.09;;;0.28;85.71
30730;BME280;17476;48.458;7.928;2023-02-11T00:49:14;102170.72;;;0.24;86.45
30730;BME280;17476;48.458;7.928;2023-02-11T00:51:41;102168.13;;;0.26;86.54
30730;BME280;17476;48.458;7.928;2023-02-11T00:54:06;102169.78;;;0.29;86.12
30730;BME280;17476;48.458;7.928;2023-02-11T00:56:33;102159.50;;;0.27;86.32
30730;BME280;17476;48.458;7.928;2023-02-11T00:58:58;102160.44;;;0.24;87.33
30730;BME280;17476;48.458;7.928;2023-02-11T01:01:24;102159.31;;;0.35;86.68
30730;BME280;17476;48.458;7.928;2023-02-11T01:03:51;102166.97;;;0.36;88.09
30730;BME280;17476;48.458;7.928;2023-02-11T01:06:17;102164.97;;;0.46;86.40
30730;BME280;17476;48.458;7.928;2023-02-11T01:08:43;102149.75;;;0.38;86.50
30730;BME280;17476;48.458;7.928;2023-02-11T01:11:19;102162.63;;;0.38;87.76
30730;BME280;17476;48.458;7.928;2023-02-11T01:13:46;102160.19;;;0.34;87.65
30730;BME280;17476;48.458;7.928;2023-02-11T01:16:13;102148.41;;;0.25;87.51
30730;BME280;17476;48.458;7.928;2023-02-11T01:18:40;102150.94;;;0.26;87.79
30730;BME280;17476;48.458;7.928;2023-02-11T01:21:09;102139.13;;;0.21;88.82
30730;BME280;17476;48.458;7.928;2023-02-11T01:23:35;102144.13;;;0.25;88.68
30730;BME280;17476;48.458;7.928;2023-02-11T01:26:01;102149.88;;;0.34;88.44
30730;BME280;17476;48.458;7.928;2023-02-11T01:28:28;102157.59;;;0.35;86.90
30730;BME280;17476;48.458;7.928;2023-02-11T01:30:55;102156.94;;;0.27;87.49
30730;BME280;17476;48.458;7.928;2023-02-11T01:33:22;102138.06;;;0.26;87.07
30730;BME280;17476;48.458;7.928;2023-02-11T01:35:48;102139.28;;;0.15;87.68
30730;BME280;17476;48.458;7.928;2023-02-11T01:38:22;102140.84;;;0.20;88.40
30730;BME280;17476;48.458;7.928;2023-02-11T01:40:54;102141.41;;;0.30;88.92
30730;BME280;17476;48.458;7.928;2023-02-11T01:43:22;102132.88;;;0.30;87.65
30730;BME280;17476;48.458;7.928;2023-02-11T01:48:56;102138.47;;;0.13;87.22
30730;BME280;17476;48.458;7.928;2023-02-11T01:54:31;102125.53;;;0.16;87.86
30730;BME280;17476;48.458;7.928;2023-02-11T01:57:21;102115.25;;;0.16;88.23
30730;BME280;17476;48.458;7.928;2023-02-11T02:05:58;102117.81;;;0.16;88.82
30730;BME280;17476;48.458;7.928;2023-02-11T02:08:41;102108.16;;;0.24;87.71
30730;BME280;17476;48.458;7.928;2023-02-11T02:11:08;102102.44;;;0.13;88.54
30730;BME280;17476;48.458;7.928;2023-02-11T02:13:35;102101.38;;;0.21;87.09
30730;BME280;17476;48.458;7.928;2023-02-11T02:16:04;102088.78;;;0.11;88.06
30730;BME280;17476;48.458;7.928;2023-02-11T02:37:09;102082.88;;;0.09;88.60
30730;BME280;17476;48.458;7.928;2023-02-11T02:39:37;102083.97;;;0.00;88.45
30730;BME280;17476;48.458;7.928;2023-02-11T02:42:04;102076.31;;;-0.03;87.47
30730;BME280;17476;48.458;7.928;2023-02-11T02:44:30;102075.66;;;-0.10;88.62
30730;BME280;17476;48.458;7.928;2023-02-11T02:46:56;102072.88;;;-0.02;89.07
30730;BME280;17476;48.458;7.928;2023-02-11T02:49:22;102072.75;;;0.03;89.45
30730;BME280;17476;48.458;7.928;2023-02-11T02:52:34;102074.53;;;0.01;89.02
30730;BME280;17476;48.458;7.928;2023-02-11T02:55:12;102067.56;;;0.04;88.95
30730;BME280;17476;48.458;7.928;2023-02-11T03:01:25;102071.00;;;0.03;90.24
30730;BME280;17476;48.458;7.928;2023-02-11T03:09:30;102070.84;;;0.09;89.89
30730;BME280;17476;48.458;7.928;2023-02-11T03:11:59;102064.69;;;0.13;88.16
30730;BME280;17476;48.458;7.928;2023-02-11T03:14:27;102070.06;;;0.06;88.30
30730;BME280;17476;48.458;7.928;2023-02-11T03:16:57;102070.84;;;0.09;89.40
30730;BME280;17476;48.458;7.928;2023-02-11T03:19:40;102065.41;;;0.18;90.08
30730;BME280;17476;48.458;7.928;2023-02-11T03:22:18;102064.31;;;0.27;89.31
30730;BME280;17476;48.458;7.928;2023-02-11T03:24:46;102054.00;;;0.27;89.17
30730;BME280;17476;48.458;7.928;2023-02-11T03:27:22;102061.78;;;0.25;87.90
30730;BME280;17476;48.458;7.928;2023-02-11T03:33:17;102068.16;;;0.14;88.00
30730;BME280;17476;48.458;7.928;2023-02-11T03:36:04;102066.31;;;0.17;87.93
30730;BME280;17476;48.458;7.928;2023-02-11T03:38:37;102064.75;;;0.12;87.13
30730;BME280;17476;48.458;7.928;2023-02-11T03:41:08;102064.69;;;0.13;88.03
30730;BME280;17476;48.458;7.928;2023-02-11T03:43:41;102061.00;;;-0.08;86.92
30730;BME280;17476;48.458;7.928;2023-02-11T03:46:10;102062.28;;;-0.22;88.71
30730;BME280;17476;48.458;7.928;2023-02-11T03:48:45;102065.59;;;-0.17;89.05
30730;BME280;17476;48.458;7.928;2023-02-11T03:51:14;102068.88;;;-0.12;88.79
30730;BME280;17476;48.458;7.928;2023-02-11T03:53:44;102074.25;;;-0.20;88.86
30730;BME280;17476;48.458;7.928;2023-02-11T03:56:16;102074.03;;;-0.12;88.06
30730;BME280;17476;48.458;7.928;2023-02-11T03:58:44;102078.50;;;-0.19;88.15
30730;BME280;17476;48.458;7.928;2023-02-11T04:01:11;102081.75;;;-0.14;88.29
30730;BME280;17476;48.458;7.928;2023-02-11T04:03:37;102069.00;;;-0.17;88.84
30730;BME280;17476;48.458;7.928;2023-02-11T04:06:03;102073.91;;;-0.09;88.83
30730;BME280;17476;48.458;7.928;2023-02-11T04:08:29;102079.91;;;-0.09;89.05
30730;BME280;17476;48.458;7.928;2023-02-11T04:10:56;102083.16;;;-0.02;88.89
30730;BME280;17476;48.458;7.928;2023-02-11T04:13:22;102080.41;;;0.04;88.82
30730;BME280;17476;48.458;7.928;2023-02-11T04:15:48;102060.50;;;0.11;88.17
30730;BME280;17476;48.458;7.928;2023-02-11T04:18:14;102044.34;;;0.06;87.14
30730;BME280;17476;48.458;7.928;2023-02-11T04:20:40;102052.44;;;-0.07;87.65
30730;BME280;17476;48.458;7.928;2023-02-11T04:23:06;102051.56;;;-0.07;87.90
30730;BME280;17476;48.458;7.928;2023-02-11T04:25:31;102045.75;;;-0.12;88.75
30730;BME280;17476;48.458;7.928;2023-02-11T04:27:57;102069.88;;;-0.18;89.59
30730;BME280;17476;48.458;7.928;2023-02-11T04:30:23;102055.31;;;-0.17;89.82
30730;BME280;17476;48.458;7.928;2023-02-11T04:32:49;102061.34;;;-0.18;89.45
30730;BME280;17476;48.458;7.928;2023-02-11T04:35:15;102059.44;;;-0.12;88.95
30730;BME280;17476;48.458;7.928;2023-02-11T04:37:41;102058.63;;;-0.14;89.88
30730;BME280;17476;48.458;7.928;2023-02-11T04:40:07;102071.53;;;-0.15;89.75
30730;BME280;17476;48.458;7.928;2023-02-11T04:42:33;102074.75;;;-0.09;89.79
30730;BME280;17476;48.458;7.928;2023-02-11T04:44:59;102080.91;;;-0.13;90.04
30730;BME280;17476;48.458;7.928;2023-02-11T04:47:25;102075.59;;;-0.08;89.99
30730;BME280;17476;48.458;7.928;2023-02-11T04:49:51;102079.75;;;-0.03;88.84
30730;BME280;17476;48.458;7.928;2023-02-11T04:52:16;102079.84;;;-0.07;90.53
30730;BME280;17476;48.458;7.928;2023-02-11T04:54:42;102094.88;;;0.08;89.76
30730;BME280;17476;48.458;7.928;2023-02-11T04:57:08;102096.41;;;0.15;90.11
30730;BME280;17476;48.458;7.928;2023-02-11T04:59:34;102092.81;;;0.21;90.04
30730;BME280;17476;48.458;7.928;2023-02-11T05:02:00;102082.31;;;0.27;89.17
30730;BME280;17476;48.458;7.928;2023-02-11T05:04:26;102084.03;;;0.28;89.13
30730;BME280;17476;48.458;7.928;2023-02-11T05:06:52;102077.03;;;0.32;87.77
30730;BME280;17476;48.458;7.928;2023-02-11T05:09:17;102065.97;;;0.30;87.67
30730;BME280;17476;48.458;7.928;2023-02-11T05:11:43;102052.50;;;0.20;87.93
30730;BME280;17476;48.458;7.928;2023-02-11T05:14:09;102049.47;;;0.07;87.80
30730;BME280;17476;48.458;7.928;2023-02-11T05:16:35;102061.84;;;-0.07;90.74
30730;BME280;17476;48.458;7.928;2023-02-11T05:19:01;102036.91;;;-0.04;89.96
30730;BME280;17476;48.458;7.928;2023-02-11T05:21:26;102055.03;;;-0.08;89.52
30730;BME280;17476;48.458;7.928;2023-02-11T05:23:52;102057.69;;;-0.11;89.25
30730;BME280;17476;48.458;7.928;2023-02-11T05:26:18;102064.06;;;-0.24;90.18
30730;BME280;17476;48.458;7.928;2023-02-11T05:28:44;102062.91;;;-0.14;90.26
30730;BME280;17476;48.458;7.928;2023-02-11T05:31:11;102058.66;;;-0.15;89.75
30730;BME280;17476;48.458;7.928;2023-02-11T05:33:39;102062.06;;;-0.13;89.22
30730;BME280;17476;48.458;7.928;2023-02-11T05:36:10;102063.75;;;-0.12;89.20
30730;BME280;17476;48.458;7.928;2023-02-11T05:38:36;102049.22;;;-0.15;87.55
30730;BME280;17476;48.458;7.928;2023-02-11T05:41:04;102051.72;;;-0.12;88.44
30730;BME280;17476;48.458;7.928;2023-02-11T05:43:31;102047.59;;;-0.17;88.09
30730;BME280;17476;48.458;7.928;2023-02-11T05:45:57;102037.97;;;-0.42;87.95
30730;BME280;17476;48.458;7.928;2023-02-11T05:48:23;102036.66;;;-0.57;88.99
30730;BME280;17476;48.458;7.928;2023-02-11T05:50:48;102038.50;;;-0.62;89.46
30730;BME280;17476;48.458;7.928;2023-02-11T05:53:14;102040.59;;;-0.76;90.69
30730;BME280;17476;48.458;7.928;2023-02-11T05:55:40;102038.69;;;-0.69;91.53
30730;BME280;17476;48.458;7.928;2023-02-11T05:58:06;102039.06;;;-0.50;92.25
30730;BME280;17476;48.458;7.928;2023-02-11T06:00:33;102040.31;;;-0.33;90.84
30730;BME280;17476;48.458;7.928;2023-02-11T06:03:00;102026.19;;;-0.18;89.75
30730;BME280;17476;48.458;7.928;2023-02-11T06:05:26;102017.31;;;-0.08;89.67
30730;BME280;17476;48.458;7.928;2023-02-11T06:07:52;102021.59;;;-0.07;88.65
30730;BME280;17476;48.458;7.928;2023-02-11T06:10:18;102029.16;;;-0.02;89.12
30730;BME280;17476;48.458;7.928;2023-02-11T06:12:43;102032.50;;;0.02;88.29
30730;BME280;17476;48.458;7.928;2023-02-11T06:15:09;102039.47;;;-0.04;88.49
30730;BME280;17476;48.458;7.928;2023-02-11T06:17:35;102023.00;;;0.04;88.71
30730;BME280;17476;48.458;7.928;2023-02-11T06:20:05;102012.69;;;0.04;88.48
30730;BME280;17476;48.458;7.928;2023-02-11T06:22:31;102010.19;;;0.02;89.47
30730;BME280;17476;48.458;7.928;2023-02-11T06:24:57;101999.72;;;0.07;89.49
30730;BME280;17476;48.458;7.928;2023-02-11T06:27:23;101993.63;;;0.11;89.00
30730;BME280;17476;48.458;7.928;2023-02-11T06:29:49;101979.94;;;0.10;89.29
30730;BME280;17476;48.458;7.928;2023-02-11T06:32:17;101989.25;;;0.13;88.22
30730;BME280;17476;48.458;7.928;2023-02-11T06:34:43;101996.81;;;0.19;88.63
30730;BME280;17476;48.458;7.928;2023-02-11T06:37:08;102009.44;;;0.26;89.38
30730;BME280;17476;48.458;7.928;2023-02-11T06:39:34;102013.38;;;0.38;88.22
30730;BME280;17476;48.458;7.928;2023-02-11T06:42:00;102024.78;;;0.30;87.65
30730;BME280;17476;48.458;7.928;2023-02-11T06:44:26;102021.38;;;0.29;86.92
30730;BME280;17476;48.458;7.928;2023-02-11T06:46:52;102034.19;;;0.31;87.66
30730;BME280;17476;48.458;7.928;2023-02-11T06:49:17;102042.84;;;0.28;88.38
30730;BME280;17476;48.458;7.928;2023-02-11T06:51:43;102038.25;;;0.38;88.33
30730;BME280;17476;48.458;7.928;2023-02-11T06:54:11;102047.59;;;0.42;87.68
30730;BME280;17476;48.458;7.928;2023-02-11T06:56:39;102061.19;;;0.45;88.08
30730;BME280;17476;48.458;7.928;2023-02-11T06:59:06;102068.78;;;0.50;87.52
30730;BME280;17476;48.458;7.928;2023-02-11T07:01:32;102060.06;;;0.54;86.48
30730;BME280;17476;48.458;7.928;2023-02-11T07:03:57;102055.06;;;0.49;86.75
30730;BME280;17476;48.458;7.928;2023-02-11T07:06:25;102048.09;;;0.53;87.18
30730;BME280;17476;48.458;7.928;2023-02-11T07:08:53;102063.50;;;0.54;86.21
30730;BME280;17476;48.458;7.928;2023-02-11T07:11:25;102060.16;;;0.51;86.87
30730;BME280;17476;48.458;7.928;2023-02-11T07:13:54;102058.25;;;0.58;86.29
30730;BME280;17476;48.458;7.928;2023-02-11T07:16:21;102050.41;;;0.61;85.18
30730;BME280;17476;48.458;7.928;2023-02-11T07:18:47;102041.97;;;0.57;85.50
30730;BME280;17476;48.458;7.928;2023-02-11T07:21:18;102046.03;;;0.64;86.65
30730;BME280;17476;48.458;7.928;2023-02-11T07:23:44;102051.59;;;0.78;85.80
30730;BME280;17476;48.458;7.928;2023-02-11T07:26:14;102041.38;;;0.75;85.72
30730;BME280;17476;48.458;7.928;2023-02-11T07:28:41;102044.09;;;0.71;85.09
30730;BME280;17476;48.458;7.928;2023-02-11T07:31:13;102048.53;;;0.66;86.39
30730;BME280;17476;48.458;7.928;2023-02-11T07:33:41;102051.72;;;0.74;85.80
30730;BME280;17476;48.458;7.928;2023-02-11T07:36:09;102053.63;;;0.67;85.23
30730;BME280;17476;48.458;7.928;2023-02-11T07:38:36;102059.28;;;0.52;85.71
30730;BME280;17476;48.458;7.928;2023-02-11T07:41:09;102072.97;;;0.52;86.10
30730;BME280;17476;48.458;7.928;2023-02-11T07:43:37;102073.16;;;0.46;86.41
30730;BME280;17476;48.458;7.928;2023-02-11T07:46:12;102072.31;;;0.46;86.16
30730;BME280;17476;48.458;7.928;2023-02-11T07:48:39;102065.63;;;0.40;86.24
30730;BME280;17476;48.458;7.928;2023-02-11T07:51:26;102058.38;;;0.25;87.46
30730;BME280;17476;48.458;7.928;2023-02-11T07:53:54;102062.69;;;0.24;88.52
30730;BME280;17476;48.458;7.928;2023-02-11T07:56:22;102064.13;;;0.33;87.66
30730;BME280;17476;48.458;7.928;2023-02-11T07:58:49;102069.28;;;0.33;87.32
30730;BME280;17476;48.458;7.928;2023-02-11T08:01:23;102068.47;;;0.31;87.44
30730;BME280;17476;48.458;7.928;2023-02-11T08:03:56;102062.31;;;0.37;87.78
30730;BME280;17476;48.458;7.928;2023-02-11T08:06:26;102067.19;;;0.46;87.45
30730;BME280;17476;48.458;7.928;2023-02-11T08:08:52;102060.81;;;0.58;87.72
30730;BME280;17476;48.458;7.928;2023-02-11T08:11:27;102060.44;;;0.70;88.30
30730;BME280;17476;48.458;7.928;2023-02-11T08:13:54;102064.50;;;0.77;87.13
30730;BME280;17476;48.458;7.928;2023-02-11T08:16:30;102076.16;;;0.89;86.13
30730;BME280;17476;48.458;7.928;2023-02-11T08:19:00;102087.31;;;0.89;87.47
30730;BME280;17476;48.458;7.928;2023-02-11T08:21:26;102083.06;;;0.87;85.17
30730;BME280;17476;48.458;7.928;2023-02-11T08:23:52;102081.16;;;0.93;85.81
30730;BME280;17476;48.458;7.928;2023-02-11T08:26:25;102075.66;;;1.04;84.46
30730;BME280;17476;48.458;7.928;2023-02-11T08:28:54;102075.63;;;1.05;84.45
30730;BME280;17476;48.458;7.928;2023-02-11T08:31:29;102071.16;;;1.11;86.39
30730;BME280;17476;48.458;7.928;2023-02-11T08:33:56;102072.38;;;1.25;85.72
30730;BME280;17476;48.458;7.928;2023-02-11T08:36:33;102069.66;;;1.30;84.50
30730;BME280;17476;48.458;7.928;2023-02-11T08:39:02;102071.22;;;1.34;84.95
30730;BME280;17476;48.458;7.928;2023-02-11T08:41:34;102077.13;;;1.38;85.13
30730;BME280;17476;48.458;7.928;2023-02-11T08:44:00;102076.72;;;1.50;84.96
30730;BME280;17476;48.458;7.928;2023-02-11T08:46:26;102078.00;;;1.61;84.45
30730;BME280;17476;48.458;7.928;2023-02-11T08:48:52;102077.81;;;1.68;84.51
30730;BME280;17476;48.458;7.928;2023-02-11T08:51:21;102076.94;;;1.92;84.03
30730;BME280;17476;48.458;7.928;2023-02-11T08:53:49;102089.50;;;2.25;84.37
30730;BME280;17476;48.458;7.928;2023-02-11T08:56:17;102090.81;;;2.80;81.57
30730;BME280;17476;48.458;7.928;2023-02-11T08:58:44;102083.38;;;3.76;81.44
30730;BME280;17476;48.458;7.928;2023-02-11T09:01:19;102075.22;;;4.60;75.55
30730;BME280;17476;48.458;7.928;2023-02-11T09:03:46;102066.28;;;5.19;72.44
30730;BME280;17476;48.458;7.928;2023-02-11T09:06:13;102074.00;;;5.56;69.83
30730;BME280;17476;48.458;7.928;2023-02-11T09:08:42;102078.94;;;5.60;69.63
30730;BME280;17476;48.458;7.928;2023-02-11T09:11:09;102079.06;;;6.08;68.50
30730;BME280;17476;48.458;7.928;2023-02-11T09:13:36;102070.03;;;6.62;66.99
30730;BME280;17476;48.458;7.928;2023-02-11T09:16:03;102071.06;;;7.05;64.89
30730;BME280;17476;48.458;7.928;2023-02-11T09:18:30;102075.66;;;7.30;62.96
30730;BME280;17476;48.458;7.928;2023-02-11T09:21:05;102067.81;;;7.60;61.58
30730;BME280;17476;48.458;7.928;2023-02-11T09:23:31;102068.38;;;7.94;60.60
30730;BME280;17476;48.458;7.928;2023-02-11T09:26:27;102071.81;;;7.94;60.83
30730;BME280;17476;48.458;7.928;2023-02-11T09:28:53;102063.50;;;8.31;60.74
30730;BME280;17476;48.458;7.928;2023-02-11T09:31:22;102064.03;;;8.50;57.42
30730;BME280;17476;48.458;7.928;2023-02-11T09:33:52;102060.59;;;8.77;56.64
30730;BME280;17476;48.458;7.928;2023-02-11T09:36:24;102044.59;;;8.95;52.86
30730;BME280;17476;48.458;7.928;2023-02-11T09:38:51;102052.56;;;9.45;54.77
30730;BME280;17476;48.458;7.928;2023-02-11T09:43:57;102042.09;;;9.83;52.11
30730;BME280;17476;48.458;7.928;2023-02-11T09:46:33;102044.84;;;9.56;50.53
30730;BME280;17476;48.458;7.928;2023-02-11T09:49:00;102047.63;;;9.27;52.31
30730;BME280;17476;48.458;7.928;2023-02-11T09:51:47;102058.13;;;8.88;50.88
30730;BME280;17476;48.458;7.928;2023-02-11T09:54:36;102055.63;;;8.59;54.37
30730;BME280;17476;48.458;7.928;2023-02-11T09:57:08;102051.38;;;8.44;54.67
30730;BME280;17476;48.458;7.928;2023-02-11T09:59:34;102058.88;;;8.07;54.46
30730;BME280;17476;48.458;7.928;2023-02-11T10:02:16;102054.53;;;8.49;56.19
30730;BME280;17476;48.458;7.928;2023-02-11T10:20:35;102055.31;;;10.31;49.56
30730;BME280;17476;48.458;7.928;2023-02-11T10:23:16;102060.47;;;10.91;47.56
30730;BME280;17476;48.458;7.928;2023-02-11T10:25:47;102067.66;;;11.47;47.80
30730;BME280;17476;48.458;7.928;2023-02-11T10:28:33;102059.47;;;11.85;45.43
30730;BME280;17476;48.458;7.928;2023-02-11T10:31:10;102064.19;;;12.25;45.73
30730;BME280;17476;48.458;7.928;2023-02-11T10:36:27;102056.31;;;13.00;42.23
30730;BME280;17476;48.458;7.928;2023-02-11T10:38:54;102062.00;;;13.37;42.57
30730;BME280;17476;48.458;7.928;2023-02-11T10:41:27;102051.63;;;13.36;44.79
30730;BME280;17476;48.458;7.928;2023-02-11T10:43:55;102056.78;;;13.47;41.83
30730;BME280;17476;48.458;7.928;2023-02-11T10:46:30;102052.50;;;13.77;40.67
30730;BME280;17476;48.458;7.928;2023-02-11T10:48:56;102049.38;;;12.99;41.53
30730;BME280;17476;48.458;7.928;2023-02-11T10:51:24;102048.50;;;12.89;41.81
30730;BME280;17476;48.458;7.928;2023-02-11T10:56:49;102032.19;;;13.48;41.23
30730;BME280;17476;48.458;7.928;2023-02-11T10:59:34;102031.00;;;13.41;41.91
30730;BME280;17476;48.458;7.928;2023-02-11T11:02:28;102025.75;;;14.02;39.02
30730;BME280;17476;48.458;7.928;2023-02-11T11:05:04;102022.47;;;13.79;41.15
30730;BME280;17476;48.458;7.928;2023-02-11T11:07:32;102015.63;;;13.16;41.17
30730;BME280;17476;48.458;7.928;2023-02-11T11:16:16;101992.50;;;13.09;42.55
30730;BME280;17476;48.458;7.928;2023-02-11T11:21:40;101980.47;;;12.86;42.47
30730;BME280;17476;48.458;7.928;2023-02-11T11:24:22;101973.56;;;12.53;44.08
30730;BME280;17476;48.458;7.928;2023-02-11T11:26:54;101975.78;;;12.48;44.83
30730;BME280;17476;48.458;7.928;2023-02-11T11:32:01;101962.19;;;12.43;45.71
30730;BME280;17476;48.458;7.928;2023-02-11T11:34:34;101951.16;;;12.81;44.22
30730;BME280;17476;48.458;7.928;2023-02-11T11:37:21;101952.78;;;13.24;44.02
30730;BME280;17476;48.458;7.928;2023-02-11T11:40:03;101955.38;;;13.45;43.60
30730;BME280;17476;48.458;7.928;2023-02-11T11:42:35;101954.28;;;13.97;43.39
30730;BME280;17476;48.458;7.928;2023-02-11T11:45:24;101952.94;;;14.70;41.30
30730;BME280;17476;48.458;7.928;2023-02-11T11:48:12;101949.56;;;15.35;40.32
30730;BME280;17476;48.458;7.928;2023-02-11T11:50:56;101946.94;;;15.62;38.54
30730;BME280;17476;48.458;7.928;2023-02-11T11:56:15;101940.09;;;16.32;36.54
30730;BME280;17476;48.458;7.928;2023-02-11T11:58:41;101932.63;;;16.28;35.83
30730;BME280;17476;48.458;7.928;2023-02-11T12:01:42;101929.72;;;16.39;34.69
30730;BME280;17476;48.458;7.928;2023-02-11T12:07:21;101927.50;;;17.22;34.07
30730;BME280;17476;48.458;7.928;2023-02-11T12:21:52;101922.50;;;18.44;34.01
30730;BME280;17476;48.458;7.928;2023-02-11T12:24:39;101931.91;;;19.04;36.00
30730;BME280;17476;48.458;7.928;2023-02-11T12:27:22;101925.34;;;19.23;32.60
30730;BME280;17476;48.458;7.928;2023-02-11T12:33:10;101923.06;;;19.51;31.41
30730;BME280;17476;48.458;7.928;2023-02-11T12:50:19;101914.00;;;19.76;30.76
30730;BME280;17476;48.458;7.928;2023-02-11T12:55:24;101916.22;;;18.78;33.06
30730;BME280;17476;48.458;7.928;2023-02-11T12:57:53;101902.88;;;19.02;34.96
30730;BME280;17476;48.458;7.928;2023-02-11T13:00:40;101909.50;;;19.06;35.33
30730;BME280;17476;48.458;7.928;2023-02-11T13:03:34;101902.00;;;19.18;36.06
30730;BME280;17476;48.458;7.928;2023-02-11T13:06:16;101897.41;;;19.43;33.70
30730;BME280;17476;48.458;7.928;2023-02-11T13:08:53;101887.00;;;19.73;31.88
30730;BME280;17476;48.458;7.928;2023-02-11T13:11:39;101892.81;;;19.29;34.24
30730;BME280;17476;48.458;7.928;2023-02-11T13:14:18;101893.88;;;19.51;34.16
30730;BME280;17476;48.458;7.928;2023-02-11T13:16:49;101885.94;;;19.82;33.51
30730;BME280;17476;48.458;7.928;2023-02-11T13:22:43;101864.63;;;20.65;34.78
30730;BME280;17476;48.458;7.928;2023-02-11T13:25:28;101872.69;;;20.57;32.07
30730;BME280;17476;48.458;7.928;2023-02-11T13:31:01;101864.53;;;21.18;32.59
30730;BME280;17476;48.458;7.928;2023-02-11T13:33:37;101853.34;;;21.22;32.12
30730;BME280;17476;48.458;7.928;2023-02-11T13:38:34;101852.44;;;21.51;34.08
30730;BME280;17476;48.458;7.928;2023-02-11T13:41:35;101850.25;;;21.55;33.43
30730;BME280;17476;48.458;7.928;2023-02-11T13:49:40;101850.97;;;20.98;35.29
30730;BME280;17476;48.458;7.928;2023-02-11T13:52:31;101846.78;;;21.25;33.78
30730;BME280;17476;48.458;7.928;2023-02-11T13:57:41;101839.22;;;21.07;35.00
30730;BME280;17476;48.458;7.928;2023-02-11T14:06:14;101857.38;;;21.18;33.81
30730;BME280;17476;48.458;7.928;2023-02-11T14:14:34;101854.09;;;20.20;35.94
30730;BME280;17476;48.458;7.928;2023-02-11T14:17:28;101857.03;;;19.87;36.79
30730;BME280;17476;48.458;7.928;2023-02-11T14:19:55;101864.88;;;19.49;37.48
30730;BME280;17476;48.458;7.928;2023-02-11T14:22:29;101859.75;;;19.48;37.75
30730;BME280;17476;48.458;7.928;2023-02-11T14:25:11;101855.34;;;19.63;36.97
30730;BME280;17476;48.458;7.928;2023-02-11T14:28:19;101856.06;;;19.49;37.21
30730;BME280;17476;48.458;7.928;2023-02-11T14:31:02;101849.22;;;19.31;38.47
30730;BME280;17476;48.458;7.928;2023-02-11T14:36:28;101848.28;;;19.24;38.28
30730;BME280;17476;48.458;7.928;2023-02-11T14:39:17;101847.88;;;18.96;37.96
30730;BME280;17476;48.458;7.928;2023-02-11T14:41:48;101831.72;;;18.75;37.67
30730;BME280;17476;48.458;7.928;2023-02-11T14:44:35;101839.56;;;18.44;39.78
30730;BME280;17476;48.458;7.928;2023-02-11T14:47:02;101841.84;;;18.55;38.89
30730;BME280;17476;48.458;7.928;2023-02-11T14:49:34;101837.22;;;18.49;39.98
30730;BME280;17476;48.458;7.928;2023-02-11T14:52:22;101833.91;;;18.47;39.11
30730;BME280;17476;48.458;7.928;2023-02-11T14:54:50;101835.09;;;18.36;40.13
30730;BME280;17476;48.458;7.928;2023-02-11T14:57:19;101832.97;;;18.23;40.31
30730;BME280;17476;48.458;7.928;2023-02-11T15:00:21;101837.44;;;18.23;39.47
30730;BME280;17476;48.458;7.928;2023-02-11T15:02:48;101833.78;;;18.24;40.71
30730;BME280;17476;48.458;7.928;2023-02-11T15:05:24;101834.09;;;18.21;39.78
30730;BME280;17476;48.458;7.928;2023-02-11T15:07:54;101830.81;;;17.94;39.91
30730;BME280;17476;48.458;7.928;2023-02-11T15:10:32;101828.81;;;17.80;40.69
30730;BME280;17476;48.458;7.928;2023-02-11T15:13:01;101834.72;;;17.66;41.73
30730;BME280;17476;48.458;7.928;2023-02-11T15:15:28;101832.53;;;17.53;40.89
30730;BME280;17476;48.458;7.928;2023-02-11T15:17:58;101837.81;;;17.37;41.81
30730;BME280;17476;48.458;7.928;2023-02-11T15:20:28;101838.97;;;17.34;41.36
30730;BME280;17476;48.458;7.928;2023-02-11T15:23:07;101842.41;;;17.27;41.36
30730;BME280;17476;48.458;7.928;2023-02-11T15:25:44;101844.47;;;17.07;41.03
30730;BME280;17476;48.458;7.928;2023-02-11T15:28:28;101851.47;;;16.82;41.27
30730;BME280;17476;48.458;7.928;2023-02-11T15:31:14;101848.16;;;16.54;42.73
30730;BME280;17476;48.458;7.928;2023-02-11T15:33:40;101847.38;;;16.35;43.58
30730;BME280;17476;48.458;7.928;2023-02-11T15:36:09;101843.25;;;16.15;42.71
30730;BME280;17476;48.458;7.928;2023-02-11T15:38:36;101851.50;;;15.94;42.92
30730;BME280;17476;48.458;7.928;2023-02-11T15:41:03;101860.75;;;15.63;45.09
30730;BME280;17476;48.458;7.928;2023-02-11T15:43:45;101855.44;;;15.45;44.44